sensor_id;sensor_type;location;lat;lon;timestamp;P1;durP1;ratioP1;P2;durP2;ratioP2
65533;SDS011;53640;55.838;37.184;2023-04-01T00:00:29;12.73;;;7.97;;
65533;SDS011;53640;55.838;37.184;2023-04-01T00:02:58;11.13;;;7.63;;
65533;SDS011;53640;55.838;37.184;2023-04-01T00:05:26;11.63;;;7.65;;
65533;SDS011;53640;55.838;37.184;2023-04-01T00:07:53;14.25;;;7.38;;
65533;SDS011;53640;55.838;37.184;2023-04-01T00:10:20;13.07;;;7.60;;
65533;SDS011;53640;55.838;37.184;2023-04-01T00:12:46;10.30;;;7.43;;
65533;SDS011;53640;55.838;37.184;2023-04-01T00:15:13;12.15;;;7.57;;
65533;SDS011;53640;55.838;37.184;2023-04-01T00:17:41;10.38;;;7.20;;
65533;SDS011;53640;55.838;37.184;2023-04-01T00:20:09;15.27;;;7.90;;
65533;SDS011;53640;55.838;37.184;2023-04-01T00:22:36;12.07;;;7.60;;
65533;SDS011;53640;55.838;37.184;2023-04-01T00:25:04;10.70;;;8.00;;
65533;SDS011;53640;55.838;37.184;2023-04-01T00:27:30;12.02;;;7.90;;
65533;SDS011;53640;55.838;37.184;2023-04-01T00:29:57;11.35;;;7.80;;
65533;SDS011;53640;55.838;37.184;2023-04-01T00:32:24;14.68;;;8.88;;
65533;SDS011;53640;55.838;37.184;2023-04-01T00:34:52;14.15;;;8.82;;
65533;SDS011;53640;55.838;37.184;2023-04-01T00:37:19;11.10;;;7.30;;
65533;SDS011;53640;55.838;37.184;2023-04-01T00:39:47;10.85;;;7.60;;
65533;SDS011;53640;55.838;37.184;2023-04-01T00:42:14;12.80;;;7.45;;
65533;SDS011;53640;55.838;37.184;2023-04-01T00:44:40;12.95;;;7.82;;
65533;SDS011;53640;55.838;37.184;2023-04-01T00:47:10;9.93;;;7.53;;
65533;SDS011;53640;55.838;37.184;2023-04-01T00:49:39;12.90;;;8.15;;
65533;SDS011;53640;55.838;37.184;2023-04-01T00:52:08;12.98;;;8.25;;
65533;SDS011;53640;55.838;37.184;2023-04-01T00:54:40;14.85;;;8.25;;
65533;SDS011;53640;55.838;37.184;2023-04-01T00:57:11;11.95;;;7.47;;
65533;SDS011;53640;55.838;37.184;2023-04-01T00:59:42;16.70;;;9.23;;
65533;SDS011;53640;55.838;37.184;2023-04-01T01:02:12;14.40;;;8.77;;
65533;SDS011;53640;55.838;37.184;2023-04-01T01:04:39;13.93;;;9.10;;
65533;SDS011;53640;55.838;37.184;2023-04-01T01:10:08;15.45;;;8.80;;
65533;SDS011;53640;55.838;37.184;2023-04-01T01:12:39;14.73;;;8.63;;
65533;SDS011;53640;55.838;37.184;2023-04-01T01:17:45;15.80;;;8.65;;
65533;SDS011;53640;55.838;37.184;2023-04-01T01:37:36;18.17;;;9.70;;
65533;SDS011;53640;55.838;37.184;2023-04-01T01:40:07;17.00;;;10.52;;
65533;SDS011;53640;55.838;37.184;2023-04-01T01:42:39;15.45;;;10.10;;
65533;SDS011;53640;55.838;37.184;2023-04-01T01:45:12;17.88;;;11.25;;
65533;SDS011;53640;55.838;37.184;2023-04-01T01:47:45;18.15;;;11.25;;
65533;SDS011;53640;55.838;37.184;2023-04-01T01:50:14;16.55;;;10.10;;
65533;SDS011;53640;55.838;37.184;2023-04-01T01:52:42;19.13;;;11.23;;
65533;SDS011;53640;55.838;37.184;2023-04-01T01:55:45;16.42;;;9.30;;
65533;SDS011;53640;55.838;37.184;2023-04-01T02:00:43;15.90;;;9.43;;
65533;SDS011;53640;55.838;37.184;2023-04-01T02:03:12;20.92;;;11.75;;
65533;SDS011;53640;55.838;37.184;2023-04-01T02:05:41;19.67;;;11.25;;
65533;SDS011;53640;55.838;37.184;2023-04-01T02:08:11;14.38;;;8.90;;
65533;SDS011;53640;55.838;37.184;2023-04-01T02:10:43;17.40;;;10.65;;
65533;SDS011;53640;55.838;37.184;2023-04-01T02:13:22;18.77;;;10.48;;
65533;SDS011;53640;55.838;37.184;2023-04-01T02:15:58;19.60;;;10.10;;
65533;SDS011;53640;55.838;37.184;2023-04-01T02:18:28;19.67;;;10.13;;
65533;SDS011;53640;55.838;37.184;2023-04-01T02:20:56;14.02;;;9.93;;
65533;SDS011;53640;55.838;37.184;2023-04-01T02:23:26;15.80;;;10.27;;
65533;SDS011;53640;55.838;37.184;2023-04-01T02:25:54;17.17;;;9.73;;
65533;SDS011;53640;55.838;37.184;2023-04-01T02:28:20;17.27;;;10.00;;
65533;SDS011;53640;55.838;37.184;2023-04-01T02:30:50;16.30;;;9.80;;
65533;SDS011;53640;55.838;37.184;2023-04-01T02:33:18;16.42;;;10.02;;
65533;SDS011;53640;55.838;37.184;2023-04-01T02:35:46;16.85;;;9.50;;
65533;SDS011;53640;55.838;37.184;2023-04-01T02:38:13;15.02;;;9.45;;
65533;SDS011;53640;55.838;37.184;2023-04-01T02:40:42;15.38;;;9.50;;
65533;SDS011;53640;55.838;37.184;2023-04-01T02:43:13;14.90;;;9.23;;
65533;SDS011;53640;55.838;37.184;2023-04-01T02:45:40;16.58;;;9.30;;
65533;SDS011;53640;55.838;37.184;2023-04-01T02:48:07;17.13;;;9.88;;
65533;SDS011;53640;55.838;37.184;2023-04-01T02:50:35;14.57;;;9.68;;
65533;SDS011;53640;55.838;37.184;2023-04-01T02:53:02;13.23;;;8.57;;
65533;SDS011;53640;55.838;37.184;2023-04-01T02:55:29;15.80;;;9.20;;
65533;SDS011;53640;55.838;37.184;2023-04-01T02:57:57;14.95;;;9.60;;
65533;SDS011;53640;55.838;37.184;2023-04-01T03:00:24;16.55;;;9.75;;
65533;SDS011;53640;55.838;37.184;2023-04-01T03:02:51;17.88;;;9.90;;
65533;SDS011;53640;55.838;37.184;2023-04-01T03:05:18;17.02;;;8.88;;
65533;SDS011;53640;55.838;37.184;2023-04-01T03:07:46;12.48;;;8.80;;
65533;SDS011;53640;55.838;37.184;2023-04-01T03:10:14;14.43;;;9.23;;
65533;SDS011;53640;55.838;37.184;2023-04-01T03:12:41;15.43;;;9.38;;
65533;SDS011;53640;55.838;37.184;2023-04-01T03:15:09;16.20;;;10.18;;
65533;SDS011;53640;55.838;37.184;2023-04-01T03:17:39;14.02;;;9.35;;
65533;SDS011;53640;55.838;37.184;2023-04-01T03:20:06;15.30;;;9.98;;
65533;SDS011;53640;55.838;37.184;2023-04-01T03:22:36;14.63;;;9.20;;
65533;SDS011;53640;55.838;37.184;2023-04-01T03:25:04;16.75;;;10.10;;
65533;SDS011;53640;55.838;37.184;2023-04-01T03:27:31;20.73;;;10.68;;
65533;SDS011;53640;55.838;37.184;2023-04-01T03:29:58;16.92;;;10.45;;
65533;SDS011;53640;55.838;37.184;2023-04-01T03:32:26;16.13;;;9.02;;
65533;SDS011;53640;55.838;37.184;2023-04-01T03:34:53;15.70;;;10.20;;
65533;SDS011;53640;55.838;37.184;2023-04-01T03:37:19;15.18;;;8.98;;
65533;SDS011;53640;55.838;37.184;2023-04-01T03:39:46;12.43;;;8.50;;
65533;SDS011;53640;55.838;37.184;2023-04-01T03:42:12;16.10;;;9.68;;
65533;SDS011;53640;55.838;37.184;2023-04-01T03:44:38;18.88;;;10.70;;
65533;SDS011;53640;55.838;37.184;2023-04-01T03:47:05;21.95;;;10.60;;
65533;SDS011;53640;55.838;37.184;2023-04-01T03:49:32;19.23;;;11.38;;
65533;SDS011;53640;55.838;37.184;2023-04-01T03:51:59;20.15;;;11.48;;
65533;SDS011;53640;55.838;37.184;2023-04-01T03:54:25;19.63;;;12.10;;
65533;SDS011;53640;55.838;37.184;2023-04-01T03:56:53;21.58;;;11.43;;
65533;SDS011;53640;55.838;37.184;2023-04-01T03:59:22;21.90;;;12.18;;
65533;SDS011;53640;55.838;37.184;2023-04-01T04:01:49;15.30;;;9.80;;
65533;SDS011;53640;55.838;37.184;2023-04-01T04:04:15;16.67;;;10.20;;
65533;SDS011;53640;55.838;37.184;2023-04-01T04:06:44;14.18;;;9.90;;
65533;SDS011;53640;55.838;37.184;2023-04-01T04:09:12;18.80;;;10.18;;
65533;SDS011;53640;55.838;37.184;2023-04-01T04:11:38;21.40;;;10.88;;
65533;SDS011;53640;55.838;37.184;2023-04-01T04:14:05;17.65;;;10.95;;
65533;SDS011;53640;55.838;37.184;2023-04-01T04:16:31;18.55;;;10.23;;
65533;SDS011;53640;55.838;37.184;2023-04-01T04:19:01;18.58;;;10.45;;
65533;SDS011;53640;55.838;37.184;2023-04-01T04:21:27;19.65;;;10.65;;
65533;SDS011;53640;55.838;37.184;2023-04-01T04:23:53;21.45;;;11.32;;
65533;SDS011;53640;55.838;37.184;2023-04-01T04:26:21;19.55;;;11.10;;
65533;SDS011;53640;55.838;37.184;2023-04-01T04:28:59;18.25;;;10.65;;
65533;SDS011;53640;55.838;37.184;2023-04-01T04:31:27;20.45;;;11.57;;
65533;SDS011;53640;55.838;37.184;2023-04-01T04:33:55;23.20;;;11.77;;
65533;SDS011;53640;55.838;37.184;2023-04-01T04:36:23;22.15;;;13.27;;
65533;SDS011;53640;55.838;37.184;2023-04-01T04:38:50;22.58;;;11.52;;
65533;SDS011;53640;55.838;37.184;2023-04-01T04:41:18;31.10;;;12.85;;
65533;SDS011;53640;55.838;37.184;2023-04-01T04:43:59;22.02;;;13.25;;
65533;SDS011;53640;55.838;37.184;2023-04-01T04:46:55;25.42;;;12.98;;
65533;SDS011;53640;55.838;37.184;2023-04-01T04:49:54;20.42;;;11.52;;
65533;SDS011;53640;55.838;37.184;2023-04-01T04:52:20;18.90;;;10.52;;
65533;SDS011;53640;55.838;37.184;2023-04-01T04:54:47;19.35;;;11.48;;
65533;SDS011;53640;55.838;37.184;2023-04-01T04:57:13;22.60;;;12.23;;
65533;SDS011;53640;55.838;37.184;2023-04-01T04:59:48;22.67;;;12.02;;
65533;SDS011;53640;55.838;37.184;2023-04-01T05:02:25;20.13;;;11.02;;
65533;SDS011;53640;55.838;37.184;2023-04-01T05:04:51;21.23;;;12.05;;
65533;SDS011;53640;55.838;37.184;2023-04-01T05:07:17;30.42;;;14.82;;
65533;SDS011;53640;55.838;37.184;2023-04-01T05:09:44;21.67;;;12.13;;
65533;SDS011;53640;55.838;37.184;2023-04-01T05:12:11;22.67;;;11.88;;
65533;SDS011;53640;55.838;37.184;2023-04-01T05:14:55;25.00;;;11.90;;
65533;SDS011;53640;55.838;37.184;2023-04-01T05:17:22;28.25;;;14.55;;
65533;SDS011;53640;55.838;37.184;2023-04-01T05:19:48;26.88;;;14.30;;
65533;SDS011;53640;55.838;37.184;2023-04-01T05:22:15;23.50;;;12.73;;
65533;SDS011;53640;55.838;37.184;2023-04-01T05:24:42;26.55;;;12.10;;
65533;SDS011;53640;55.838;37.184;2023-04-01T05:27:08;22.40;;;11.65;;
65533;SDS011;53640;55.838;37.184;2023-04-01T05:29:38;27.02;;;11.90;;
65533;SDS011;53640;55.838;37.184;2023-04-01T05:32:07;22.27;;;10.27;;
65533;SDS011;53640;55.838;37.184;2023-04-01T05:34:35;22.02;;;11.07;;
65533;SDS011;53640;55.838;37.184;2023-04-01T05:37:02;16.80;;;9.60;;
65533;SDS011;53640;55.838;37.184;2023-04-01T05:39:28;17.88;;;9.63;;
65533;SDS011;53640;55.838;37.184;2023-04-01T05:41:55;16.77;;;8.80;;
65533;SDS011;53640;55.838;37.184;2023-04-01T05:44:22;21.60;;;10.48;;
65533;SDS011;53640;55.838;37.184;2023-04-01T05:47:09;19.45;;;10.35;;
65533;SDS011;53640;55.838;37.184;2023-04-01T05:49:35;22.05;;;11.43;;
65533;SDS011;53640;55.838;37.184;2023-04-01T05:52:03;22.55;;;11.82;;
65533;SDS011;53640;55.838;37.184;2023-04-01T05:54:31;28.02;;;14.25;;
65533;SDS011;53640;55.838;37.184;2023-04-01T05:56:57;34.80;;;17.77;;
65533;SDS011;53640;55.838;37.184;2023-04-01T05:59:24;37.80;;;18.15;;
65533;SDS011;53640;55.838;37.184;2023-04-01T06:01:51;32.17;;;15.32;;
65533;SDS011;53640;55.838;37.184;2023-04-01T06:04:19;31.55;;;16.33;;
65533;SDS011;53640;55.838;37.184;2023-04-01T06:06:45;36.90;;;17.92;;
65533;SDS011;53640;55.838;37.184;2023-04-01T06:09:16;35.92;;;18.25;;
65533;SDS011;53640;55.838;37.184;2023-04-01T06:15:14;25.33;;;14.18;;
65533;SDS011;53640;55.838;37.184;2023-04-01T06:17:46;27.95;;;13.60;;
65533;SDS011;53640;55.838;37.184;2023-04-01T06:25:28;22.92;;;12.20;;
65533;SDS011;53640;55.838;37.184;2023-04-01T06:30:47;22.52;;;11.25;;
65533;SDS011;53640;55.838;37.184;2023-04-01T06:33:52;31.17;;;14.32;;
65533;SDS011;53640;55.838;37.184;2023-04-01T06:45:17;16.02;;;8.60;;
65533;SDS011;53640;55.838;37.184;2023-04-01T06:48:22;20.35;;;10.82;;
65533;SDS011;53640;55.838;37.184;2023-04-01T06:51:42;20.85;;;11.23;;
65533;SDS011;53640;55.838;37.184;2023-04-01T06:58:05;27.17;;;13.23;;
65533;SDS011;53640;55.838;37.184;2023-04-01T07:00:40;28.42;;;12.10;;
65533;SDS011;53640;55.838;37.184;2023-04-01T07:06:09;20.52;;;10.80;;
65533;SDS011;53640;55.838;37.184;2023-04-01T07:08:50;18.20;;;9.88;;
65533;SDS011;53640;55.838;37.184;2023-04-01T07:11:29;23.50;;;12.18;;
65533;SDS011;53640;55.838;37.184;2023-04-01T07:14:33;19.95;;;10.60;;
65533;SDS011;53640;55.838;37.184;2023-04-01T07:19:45;15.35;;;8.50;;
65533;SDS011;53640;55.838;37.184;2023-04-01T07:22:26;16.45;;;8.98;;
65533;SDS011;53640;55.838;37.184;2023-04-01T07:25:41;18.15;;;10.50;;
65533;SDS011;53640;55.838;37.184;2023-04-01T07:28:29;17.38;;;10.63;;
65533;SDS011;53640;55.838;37.184;2023-04-01T07:31:25;18.10;;;9.07;;
65533;SDS011;53640;55.838;37.184;2023-04-01T07:36:42;11.75;;;6.97;;
65533;SDS011;53640;55.838;37.184;2023-04-01T07:53:38;12.90;;;6.95;;
65533;SDS011;53640;55.838;37.184;2023-04-01T07:56:30;12.02;;;6.72;;
65533;SDS011;53640;55.838;37.184;2023-04-01T08:08:41;14.98;;;8.70;;
65533;SDS011;53640;55.838;37.184;2023-04-01T08:11:37;16.88;;;8.55;;
65533;SDS011;53640;55.838;37.184;2023-04-01T08:14:53;10.32;;;6.55;;
65533;SDS011;53640;55.838;37.184;2023-04-01T08:20:28;12.30;;;7.13;;
65533;SDS011;53640;55.838;37.184;2023-04-01T08:23:14;12.27;;;7.35;;
65533;SDS011;53640;55.838;37.184;2023-04-01T08:28:39;11.68;;;6.75;;
65533;SDS011;53640;55.838;37.184;2023-04-01T08:31:16;10.23;;;6.30;;
65533;SDS011;53640;55.838;37.184;2023-04-01T08:34:08;10.38;;;6.43;;
65533;SDS011;53640;55.838;37.184;2023-04-01T08:36:43;12.50;;;6.60;;
65533;SDS011;53640;55.838;37.184;2023-04-01T08:39:27;10.73;;;6.35;;
65533;SDS011;53640;55.838;37.184;2023-04-01T08:48:08;11.35;;;6.63;;
65533;SDS011;53640;55.838;37.184;2023-04-01T08:56:39;9.55;;;6.50;;
65533;SDS011;53640;55.838;37.184;2023-04-01T09:05:38;7.25;;;4.60;;
65533;SDS011;53640;55.838;37.184;2023-04-01T09:20:17;7.03;;;3.90;;
65533;SDS011;53640;55.838;37.184;2023-04-01T09:26:51;10.38;;;5.68;;
65533;SDS011;53640;55.838;37.184;2023-04-01T09:29:26;5.88;;;3.97;;
65533;SDS011;53640;55.838;37.184;2023-04-01T09:35:30;8.10;;;5.38;;
65533;SDS011;53640;55.838;37.184;2023-04-01T09:40:54;6.78;;;4.35;;
65533;SDS011;53640;55.838;37.184;2023-04-01T10:11:22;3.20;;;2.88;;
65533;SDS011;53640;55.838;37.184;2023-04-01T10:14:31;4.60;;;3.50;;
65533;SDS011;53640;55.838;37.184;2023-04-01T10:20:20;3.65;;;2.92;;
65533;SDS011;53640;55.838;37.184;2023-04-01T10:46:22;2.25;;;1.85;;
65533;SDS011;53640;55.838;37.184;2023-04-01T10:54:49;2.17;;;1.98;;
65533;SDS011;53640;55.838;37.184;2023-04-01T11:01:03;1.73;;;1.63;;
65533;SDS011;53640;55.838;37.184;2023-04-01T11:04:21;1.92;;;1.60;;
65533;SDS011;53640;55.838;37.184;2023-04-01T11:18:55;3.30;;;2.60;;
65533;SDS011;53640;55.838;37.184;2023-04-01T11:36:29;4.57;;;3.08;;
65533;SDS011;53640;55.838;37.184;2023-04-01T11:42:32;4.35;;;3.30;;
65533;SDS011;53640;55.838;37.184;2023-04-01T11:51:04;4.53;;;3.50;;
65533;SDS011;53640;55.838;37.184;2023-04-01T11:53:47;4.32;;;3.53;;
65533;SDS011;53640;55.838;37.184;2023-04-01T12:02:20;4.63;;;3.53;;
65533;SDS011;53640;55.838;37.184;2023-04-01T12:18:43;6.00;;;2.70;;
65533;SDS011;53640;55.838;37.184;2023-04-01T12:35:02;4.15;;;3.22;;
65533;SDS011;53640;55.838;37.184;2023-04-01T12:40:20;3.25;;;2.75;;
65533;SDS011;53640;55.838;37.184;2023-04-01T12:51:29;5.70;;;2.45;;
65533;SDS011;53640;55.838;37.184;2023-04-01T13:16:31;5.15;;;3.10;;
65533;SDS011;53640;55.838;37.184;2023-04-01T13:21:49;4.43;;;2.38;;
65533;SDS011;53640;55.838;37.184;2023-04-01T13:27:16;3.78;;;2.17;;
65533;SDS011;53640;55.838;37.184;2023-04-01T13:30:04;2.80;;;2.22;;
65533;SDS011;53640;55.838;37.184;2023-04-01T13:33:02;4.07;;;2.60;;
65533;SDS011;53640;55.838;37.184;2023-04-01T13:38:31;2.50;;;2.00;;
65533;SDS011;53640;55.838;37.184;2023-04-01T13:44:48;3.78;;;2.42;;
65533;SDS011;53640;55.838;37.184;2023-04-01T13:55:54;3.72;;;2.65;;
65533;SDS011;53640;55.838;37.184;2023-04-01T14:36:18;8.63;;;3.85;;
65533;SDS011;53640;55.838;37.184;2023-04-01T14:51:43;7.65;;;4.72;;
65533;SDS011;53640;55.838;37.184;2023-04-01T15:31:53;9.00;;;5.53;;
65533;SDS011;53640;55.838;37.184;2023-04-01T15:40:00;5.53;;;4.07;;
65533;SDS011;53640;55.838;37.184;2023-04-01T15:42:58;5.60;;;4.20;;
65533;SDS011;53640;55.838;37.184;2023-04-01T15:45:50;4.18;;;3.28;;
65533;SDS011;53640;55.838;37.184;2023-04-01T16:00:09;6.13;;;4.15;;
65533;SDS011;53640;55.838;37.184;2023-04-01T16:02:55;7.47;;;5.10;;
65533;SDS011;53640;55.838;37.184;2023-04-01T16:08:23;7.38;;;4.63;;
65533;SDS011;53640;55.838;37.184;2023-04-01T16:14:16;7.05;;;4.68;;
65533;SDS011;53640;55.838;37.184;2023-04-01T16:17:05;7.45;;;5.30;;
65533;SDS011;53640;55.838;37.184;2023-04-01T16:20:02;10.38;;;6.80;;
65533;SDS011;53640;55.838;37.184;2023-04-01T16:28:23;11.52;;;6.50;;
65533;SDS011;53640;55.838;37.184;2023-04-01T16:31:04;8.20;;;5.57;;
65533;SDS011;53640;55.838;37.184;2023-04-01T16:36:36;10.00;;;6.32;;
65533;SDS011;53640;55.838;37.184;2023-04-01T16:45:23;9.75;;;6.00;;
65533;SDS011;53640;55.838;37.184;2023-04-01T16:48:12;10.27;;;6.22;;
65533;SDS011;53640;55.838;37.184;2023-04-01T16:50:44;7.78;;;5.57;;
65533;SDS011;53640;55.838;37.184;2023-04-01T16:53:41;8.68;;;6.05;;
65533;SDS011;53640;55.838;37.184;2023-04-01T16:56:24;7.63;;;5.40;;
65533;SDS011;53640;55.838;37.184;2023-04-01T16:59:04;9.45;;;5.90;;
65533;SDS011;53640;55.838;37.184;2023-04-01T17:01:44;11.85;;;6.57;;
65533;SDS011;53640;55.838;37.184;2023-04-01T17:09:55;8.10;;;5.55;;
65533;SDS011;53640;55.838;37.184;2023-04-01T17:18:09;9.82;;;5.35;;
65533;SDS011;53640;55.838;37.184;2023-04-01T17:23:50;6.83;;;4.47;;
65533;SDS011;53640;55.838;37.184;2023-04-01T17:26:37;8.82;;;5.82;;
65533;SDS011;53640;55.838;37.184;2023-04-01T17:29:16;9.35;;;5.95;;
65533;SDS011;53640;55.838;37.184;2023-04-01T17:31:53;10.80;;;6.28;;
65533;SDS011;53640;55.838;37.184;2023-04-01T17:37:18;9.15;;;6.43;;
65533;SDS011;53640;55.838;37.184;2023-04-01T17:45:47;7.75;;;5.25;;
65533;SDS011;53640;55.838;37.184;2023-04-01T17:51:24;11.98;;;7.35;;
65533;SDS011;53640;55.838;37.184;2023-04-01T17:59:10;11.00;;;6.95;;
65533;SDS011;53640;55.838;37.184;2023-04-01T18:01:53;11.75;;;7.00;;
65533;SDS011;53640;55.838;37.184;2023-04-01T18:07:35;10.73;;;6.70;;
65533;SDS011;53640;55.838;37.184;2023-04-01T18:30:59;8.45;;;6.10;;
65533;SDS011;53640;55.838;37.184;2023-04-01T18:47:03;10.77;;;7.72;;
65533;SDS011;53640;55.838;37.184;2023-04-01T18:49:45;9.38;;;6.32;;
65533;SDS011;53640;55.838;37.184;2023-04-01T18:52:37;10.25;;;6.55;;
65533;SDS011;53640;55.838;37.184;2023-04-01T18:58:06;10.63;;;6.25;;
65533;SDS011;53640;55.838;37.184;2023-04-01T19:00:46;14.23;;;7.35;;
65533;SDS011;53640;55.838;37.184;2023-04-01T19:06:13;12.57;;;7.90;;
65533;SDS011;53640;55.838;37.184;2023-04-01T19:08:44;9.65;;;6.78;;
65533;SDS011;53640;55.838;37.184;2023-04-01T19:11:23;10.05;;;7.03;;
65533;SDS011;53640;55.838;37.184;2023-04-01T19:14:29;10.18;;;6.43;;
65533;SDS011;53640;55.838;37.184;2023-04-01T19:20:03;10.80;;;6.32;;
65533;SDS011;53640;55.838;37.184;2023-04-01T19:25:45;10.98;;;7.35;;
65533;SDS011;53640;55.838;37.184;2023-04-01T19:28:26;10.60;;;6.47;;
65533;SDS011;53640;55.838;37.184;2023-04-01T19:31:35;10.27;;;7.20;;
65533;SDS011;53640;55.838;37.184;2023-04-01T19:34:14;11.70;;;7.35;;
65533;SDS011;53640;55.838;37.184;2023-04-01T19:36:54;10.55;;;7.03;;
65533;SDS011;53640;55.838;37.184;2023-04-01T19:39:35;13.32;;;8.10;;
65533;SDS011;53640;55.838;37.184;2023-04-01T19:42:29;12.32;;;7.75;;
65533;SDS011;53640;55.838;37.184;2023-04-01T19:45:32;10.35;;;7.05;;
65533;SDS011;53640;55.838;37.184;2023-04-01T19:53:18;9.60;;;6.97;;
65533;SDS011;53640;55.838;37.184;2023-04-01T19:56:07;10.77;;;6.90;;
65533;SDS011;53640;55.838;37.184;2023-04-01T20:01:50;10.68;;;6.68;;
65533;SDS011;53640;55.838;37.184;2023-04-01T20:07:32;12.25;;;7.75;;
65533;SDS011;53640;55.838;37.184;2023-04-01T20:10:11;13.68;;;7.88;;
65533;SDS011;53640;55.838;37.184;2023-04-01T20:15:21;11.10;;;7.13;;
65533;SDS011;53640;55.838;37.184;2023-04-01T20:17:48;12.15;;;7.47;;
65533;SDS011;53640;55.838;37.184;2023-04-01T20:25:26;10.70;;;6.78;;
65533;SDS011;53640;55.838;37.184;2023-04-01T20:50:31;8.70;;;6.25;;
65533;SDS011;53640;55.838;37.184;2023-04-01T21:18:54;9.63;;;6.35;;
65533;SDS011;53640;55.838;37.184;2023-04-01T21:48:18;8.88;;;6.05;;
65533;SDS011;53640;55.838;37.184;2023-04-01T21:51:13;10.32;;;6.80;;
65533;SDS011;53640;55.838;37.184;2023-04-01T21:56:29;10.18;;;6.85;;
65533;SDS011;53640;55.838;37.184;2023-04-01T22:07:23;10.88;;;7.43;;
65533;SDS011;53640;55.838;37.184;2023-04-01T22:10:09;9.68;;;5.88;;
65533;SDS011;53640;55.838;37.184;2023-04-01T22:21:30;12.55;;;8.15;;
65533;SDS011;53640;55.838;37.184;2023-04-01T22:24:01;12.50;;;7.55;;
65533;SDS011;53640;55.838;37.184;2023-04-01T22:26:57;13.68;;;7.45;;
65533;SDS011;53640;55.838;37.184;2023-04-01T22:32:48;16.92;;;7.50;;
65533;SDS011;53640;55.838;37.184;2023-04-01T22:38:13;14.30;;;8.40;;
65533;SDS011;53640;55.838;37.184;2023-04-01T22:43:32;15.20;;;8.57;;
65533;SDS011;53640;55.838;37.184;2023-04-01T22:48:52;13.32;;;8.40;;
65533;SDS011;53640;55.838;37.184;2023-04-01T22:56:52;11.73;;;7.20;;
65533;SDS011;53640;55.838;37.184;2023-04-01T23:02:04;13.45;;;8.10;;
65533;SDS011;53640;55.838;37.184;2023-04-01T23:04:38;12.95;;;7.85;;
65533;SDS011;53640;55.838;37.184;2023-04-01T23:10:15;11.80;;;7.78;;
65533;SDS011;53640;55.838;37.184;2023-04-01T23:12:58;10.10;;;6.40;;
65533;SDS011;53640;55.838;37.184;2023-04-01T23:15:27;14.00;;;7.80;;
65533;SDS011;53640;55.838;37.184;2023-04-01T23:29:12;12.82;;;8.05;;
65533;SDS011;53640;55.838;37.184;2023-04-01T23:31:42;17.15;;;8.90;;
65533;SDS011;53640;55.838;37.184;2023-04-01T23:36:44;15.80;;;9.45;;
65533;SDS011;53640;55.838;37.184;2023-04-01T23:39:32;16.00;;;8.63;;
65533;SDS011;53640;55.838;37.184;2023-04-01T23:42:11;15.50;;;9.30;;
65533;SDS011;53640;55.838;37.184;2023-04-01T23:44:41;16.05;;;10.57;;
65533;SDS011;53640;55.838;37.184;2023-04-01T23:47:12;16.58;;;8.75;;
65533;SDS011;53640;55.838;37.184;2023-04-01T23:49:47;18.20;;;10.07;;
65533;SDS011;53640;55.838;37.184;2023-04-01T23:52:35;15.70;;;9.68;;
65533;SDS011;53640;55.838;37.184;2023-04-01T23:57:35;24.52;;;12.85;;
